Time;durP1;ratioP1;P1;durP2;ratioP2;P2;SDS_P1;SDS_P2;PMS_P1;PMS_P2;Temp;Humidity;BMP_temperature;BMP_pressure;BME280_temperature;BME280_humidity;BME280_pressure;Samples;Min_cycle;Max_cycle;Signal;HPM_P1;HPM_P2
2021/11/21 00:00:48;;;;;;;2.10;1.00;;;;;;;;;;5075438;28;20028;-62
2021/11/21 00:03:14;;;;;;;3.63;1.20;;;;;;;;;;5057450;28;20364;-62
2021/11/21 00:05:41;;;;;;;5.53;1.23;;;;;;;;;;5075390;28;20029;-63
2021/11/21 00:08:08;;;;;;;4.13;1.15;;;;;;;;;;5057420;28;20104;-63
2021/11/21 00:10:35;;;;;;;7.80;1.20;;;;;;;;;;5075722;28;20025;-63
2021/11/21 00:13:01;;;;;;;3.63;1.10;;;;;;;;;;5075153;28;20039;-62
2021/11/21 00:15:27;;;;;;;2.88;1.13;;;;;;;;;;5075113;28;20044;-63
2021/11/21 00:17:53;;;;;;;7.25;1.10;;;;;;;;;;5075157;28;20384;-63
2021/11/21 00:20:19;;;;;;;4.72;1.15;;;;;;;;;;5075306;28;20028;-63
2021/11/21 00:22:46;;;;;;;6.70;1.45;;;;;;;;;;5075102;28;20411;-63
2021/11/21 00:25:12;;;;;;;3.72;1.20;;;;;;;;;;5075054;28;20028;-63
2021/11/21 00:27:38;;;;;;;4.78;1.23;;;;;;;;;;5074777;28;20041;-63
2021/11/21 00:30:04;;;;;;;7.20;1.10;;;;;;;;;;5075206;28;20024;-64
2021/11/21 00:32:31;;;;;;;2.72;1.13;;;;;;;;;;5074970;28;20029;-64
2021/11/21 00:34:57;;;;;;;5.53;1.17;;;;;;;;;;5074868;28;20436;-63
2021/11/21 00:37:23;;;;;;;3.17;1.00;;;;;;;;;;5074825;28;20028;-63
2021/11/21 00:39:49;;;;;;;4.07;1.60;;;;;;;;;;5074661;28;20051;-62
2021/11/21 00:42:16;;;;;;;1.73;1.20;;;;;;;;;;5074644;28;20067;-62
2021/11/21 00:44:43;;;;;;;3.55;1.30;;;;;;;;;;5074714;28;20610;-62
2021/11/21 00:47:09;;;;;;;4.10;1.27;;;;;;;;;;5074435;28;20031;-63
2021/11/21 00:49:35;;;;;;;7.90;1.50;;;;;;;;;;5074611;28;20103;-63
2021/11/21 00:52:02;;;;;;;3.35;1.15;;;;;;;;;;5074680;28;20159;-62
2021/11/21 00:54:40;;;;;;;6.05;1.50;;;;;;;;;;5074598;28;20039;-62
2021/11/21 00:57:07;;;;;;;3.75;1.38;;;;;;;;;;5074572;28;20021;-63
2021/11/21 00:59:33;;;;;;;4.30;1.15;;;;;;;;;;5074392;28;20031;-63
2021/11/21 01:02:01;;;;;;;3.10;1.30;;;;;;;;;;5074563;28;20114;-62
2021/11/21 01:04:27;;;;;;;1.42;0.93;;;;;;;;;;5056657;28;20028;-62
2021/11/21 01:06:53;;;;;;;4.40;1.10;;;;;;;;;;5074247;28;20056;-62
2021/11/21 01:09:23;;;;;;;2.53;1.13;;;;;;;;;;5056311;28;20052;-62
2021/11/21 01:11:49;;;;;;;2.72;1.20;;;;;;;;;;5055999;28;20036;-63
2021/11/21 01:14:16;;;;;;;1.42;1.10;;;;;;;;;;5073831;28;20028;-63
2021/11/21 01:16:42;;;;;;;7.68;1.10;;;;;;;;;;5073409;28;20142;-62
2021/11/21 01:19:08;;;;;;;2.13;0.93;;;;;;;;;;5055518;28;20372;-63
2021/11/21 01:21:34;;;;;;;6.82;1.00;;;;;;;;;;5073521;28;20028;-63
2021/11/21 01:24:01;;;;;;;2.20;1.00;;;;;;;;;;5073704;28;20078;-63
2021/11/21 01:26:27;;;;;;;8.05;1.38;;;;;;;;;;5073958;28;20020;-63
2021/11/21 01:28:53;;;;;;;3.63;0.80;;;;;;;;;;5073748;28;20055;-63
2021/11/21 01:31:19;;;;;;;3.17;1.30;;;;;;;;;;5073962;28;20021;-63
2021/11/21 01:33:45;;;;;;;3.10;1.02;;;;;;;;;;5073645;28;20103;-63
2021/11/21 01:36:11;;;;;;;4.75;1.10;;;;;;;;;;5073674;28;20539;-63
2021/11/21 01:38:37;;;;;;;5.13;1.08;;;;;;;;;;5073542;28;20107;-63
2021/11/21 01:41:04;;;;;;;6.95;1.30;;;;;;;;;;5055389;28;20027;-63
2021/11/21 01:43:30;;;;;;;8.82;1.00;;;;;;;;;;5073142;28;20060;-63
2021/11/21 01:45:56;;;;;;;6.38;1.10;;;;;;;;;;5073219;28;20043;-63
2021/11/21 01:48:22;;;;;;;6.57;1.00;;;;;;;;;;5071825;28;20044;-63
2021/11/21 01:50:48;;;;;;;6.68;1.20;;;;;;;;;;5053273;28;20028;-64
2021/11/21 01:53:15;;;;;;;2.08;1.00;;;;;;;;;;5055748;28;20021;-63
2021/11/21 01:55:42;;;;;;;1.50;0.90;;;;;;;;;;5073310;28;20135;-63
2021/11/21 01:58:08;;;;;;;3.95;1.00;;;;;;;;;;5055419;28;20060;-63
2021/11/21 02:00:36;;;;;;;3.38;1.00;;;;;;;;;;5073212;28;20422;-63
2021/11/21 02:03:02;;;;;;;5.00;0.98;;;;;;;;;;5073113;28;20392;-64
2021/11/21 02:05:28;;;;;;;6.88;1.13;;;;;;;;;;5073217;28;20029;-64
2021/11/21 02:07:55;;;;;;;4.10;1.00;;;;;;;;;;5073204;28;20533;-64
2021/11/21 02:10:21;;;;;;;3.78;1.20;;;;;;;;;;5072923;28;20017;-65
2021/11/21 02:12:48;;;;;;;3.70;1.10;;;;;;;;;;5072666;28;20468;-65
2021/11/21 02:15:15;;;;;;;3.58;1.00;;;;;;;;;;5072118;28;20135;-64
2021/11/21 02:17:42;;;;;;;3.60;1.00;;;;;;;;;;5054528;28;20036;-65
2021/11/21 02:20:09;;;;;;;10.88;1.30;;;;;;;;;;5072416;28;20380;-65
2021/11/21 02:22:36;;;;;;;8.32;1.08;;;;;;;;;;5072643;28;20029;-65
2021/11/21 02:25:03;;;;;;;8.88;1.33;;;;;;;;;;5072400;28;20475;-64
2021/11/21 02:27:30;;;;;;;9.88;1.45;;;;;;;;;;5072163;28;20036;-66
2021/11/21 02:29:56;;;;;;;9.95;1.20;;;;;;;;;;5072924;28;20029;-65
2021/11/21 02:32:22;;;;;;;3.22;1.15;;;;;;;;;;5071738;28;20032;-65
2021/11/21 02:34:48;;;;;;;5.40;1.13;;;;;;;;;;5072656;28;20020;-66
2021/11/21 02:37:15;;;;;;;2.95;0.93;;;;;;;;;;5073023;28;20459;-65
2021/11/21 02:39:41;;;;;;;3.13;1.00;;;;;;;;;;5072452;28;20434;-66
2021/11/21 02:42:07;;;;;;;5.35;1.33;;;;;;;;;;5072498;28;20016;-66
2021/11/21 02:44:34;;;;;;;2.65;0.93;;;;;;;;;;5072401;28;20028;-66
2021/11/21 02:47:00;;;;;;;3.08;0.90;;;;;;;;;;5072229;28;20039;-68
2021/11/21 02:49:26;;;;;;;3.80;1.30;;;;;;;;;;5062564;28;20021;-66
2021/11/21 02:51:52;;;;;;;3.13;1.10;;;;;;;;;;5052427;28;20431;-66
2021/11/21 02:54:18;;;;;;;1.83;1.10;;;;;;;;;;5063654;28;20439;-70
2021/11/21 02:56:44;;;;;;;29.85;2.08;;;;;;;;;;5072432;28;20803;-65
2021/11/21 02:59:10;;;;;;;9.93;1.60;;;;;;;;;;5072632;28;20024;-65
2021/11/21 03:01:36;;;;;;;21.42;1.80;;;;;;;;;;5072525;28;20483;-64
2021/11/21 03:04:02;;;;;;;38.50;1.75;;;;;;;;;;5072562;28;20028;-64
2021/11/21 03:06:29;;;;;;;11.98;1.58;;;;;;;;;;5072207;28;20033;-64
2021/11/21 03:08:55;;;;;;;10.13;1.42;;;;;;;;;;5072179;28;20815;-64
2021/11/21 03:11:26;;;;;;;7.55;1.88;;;;;;;;;;5072270;28;20048;-64
2021/11/21 03:13:52;;;;;;;14.27;1.50;;;;;;;;;;5054016;28;20119;-64
2021/11/21 03:16:19;;;;;;;8.43;1.52;;;;;;;;;;5072124;28;20132;-64
2021/11/21 03:18:44;;;;;;;12.98;1.65;;;;;;;;;;5072283;28;20044;-64
2021/11/21 03:21:12;;;;;;;11.63;1.50;;;;;;;;;;5072209;28;20593;-64
2021/11/21 03:23:38;;;;;;;16.80;1.67;;;;;;;;;;5072649;28;20052;-64
2021/11/21 03:26:04;;;;;;;15.90;1.52;;;;;;;;;;5072556;28;20060;-64
2021/11/21 03:28:30;;;;;;;15.80;1.38;;;;;;;;;;5072078;28;20083;-64
2021/11/21 03:30:56;;;;;;;13.93;1.90;;;;;;;;;;5072156;28;20035;-64
2021/11/21 03:33:22;;;;;;;8.88;1.40;;;;;;;;;;5072104;28;20395;-64
2021/11/21 03:35:48;;;;;;;10.02;1.40;;;;;;;;;;5072054;28;20033;-65
2021/11/21 03:38:14;;;;;;;14.90;1.40;;;;;;;;;;5071812;28;20029;-65
2021/11/21 03:40:41;;;;;;;14.70;1.27;;;;;;;;;;5071950;28;20021;-64
2021/11/21 03:43:07;;;;;;;21.00;3.88;;;;;;;;;;5072892;28;20020;-64
2021/11/21 03:45:33;;;;;;;11.52;1.42;;;;;;;;;;5075670;28;20020;-64
2021/11/21 03:47:59;;;;;;;11.85;1.35;;;;;;;;;;5057696;28;20047;-64
2021/11/21 03:50:25;;;;;;;12.63;1.67;;;;;;;;;;5075610;28;20025;-64
2021/11/21 03:52:51;;;;;;;12.48;1.30;;;;;;;;;;5075694;28;20044;-64
2021/11/21 03:55:18;;;;;;;13.88;1.15;;;;;;;;;;5075468;28;20027;-64
2021/11/21 03:57:44;;;;;;;9.07;1.20;;;;;;;;;;5075580;28;20147;-63
2021/11/21 04:00:12;;;;;;;9.85;1.30;;;;;;;;;;5075706;28;20039;-63
2021/11/21 04:02:39;;;;;;;7.50;1.27;;;;;;;;;;5075704;28;20028;-64
2021/11/21 04:05:05;;;;;;;7.75;1.33;;;;;;;;;;5075051;28;20036;-64
2021/11/21 04:07:32;;;;;;;9.38;1.13;;;;;;;;;;5074957;28;20029;-64
2021/11/21 04:09:58;;;;;;;4.20;1.08;;;;;;;;;;5075069;28;20388;-64
2021/11/21 04:12:25;;;;;;;7.38;1.25;;;;;;;;;;5075217;28;20025;-66
2021/11/21 04:14:50;;;;;;;8.95;1.10;;;;;;;;;;5074751;28;20028;-64
2021/11/21 04:17:16;;;;;;;9.75;1.40;;;;;;;;;;5075115;28;20035;-64
2021/11/21 04:19:43;;;;;;;7.00;1.27;;;;;;;;;;5075069;28;20059;-64
2021/11/21 04:22:09;;;;;;;9.63;1.90;;;;;;;;;;5057234;28;20021;-64
2021/11/21 04:24:35;;;;;;;7.32;1.10;;;;;;;;;;5075421;28;20056;-64
2021/11/21 04:27:01;;;;;;;4.63;0.98;;;;;;;;;;5074849;28;20048;-64
2021/11/21 04:29:27;;;;;;;10.70;1.30;;;;;;;;;;5074843;28;20034;-64
2021/11/21 04:31:54;;;;;;;6.32;1.00;;;;;;;;;;5075061;28;20024;-64
2021/11/21 04:34:20;;;;;;;11.63;1.55;;;;;;;;;;5074727;28;20038;-64
2021/11/21 04:36:46;;;;;;;10.85;1.42;;;;;;;;;;5056304;28;20420;-64
2021/11/21 04:39:12;;;;;;;9.20;1.05;;;;;;;;;;5074454;28;20035;-64
2021/11/21 04:41:38;;;;;;;6.32;0.98;;;;;;;;;;5074231;28;20025;-64
2021/11/21 04:44:04;;;;;;;6.40;1.02;;;;;;;;;;5073983;28;20108;-64
2021/11/21 04:46:34;;;;;;;5.97;1.02;;;;;;;;;;5074184;28;20024;-64
2021/11/21 04:49:00;;;;;;;17.48;1.70;;;;;;;;;;5073905;28;20559;-64
2021/11/21 04:51:26;;;;;;;12.95;1.17;;;;;;;;;;5074703;28;20123;-63
2021/11/21 04:53:52;;;;;;;10.57;1.10;;;;;;;;;;5056243;28;20036;-64
2021/11/21 04:56:18;;;;;;;19.13;1.45;;;;;;;;;;5073666;28;20036;-64
2021/11/21 04:58:44;;;;;;;14.60;1.70;;;;;;;;;;5074765;28;20110;-63
2021/11/21 05:01:10;;;;;;;21.52;1.30;;;;;;;;;;5075000;28;20028;-63
2021/11/21 05:03:36;;;;;;;14.18;1.63;;;;;;;;;;5074825;28;20025;-63
2021/11/21 05:06:02;;;;;;;13.55;1.30;;;;;;;;;;5074652;28;20040;-64
2021/11/21 05:08:28;;;;;;;8.63;1.05;;;;;;;;;;5074691;28;20032;-64
2021/11/21 05:10:54;;;;;;;22.95;1.70;;;;;;;;;;5074639;28;20452;-63
2021/11/21 05:13:21;;;;;;;20.13;1.80;;;;;;;;;;5074481;28;20043;-63
2021/11/21 05:15:47;;;;;;;9.95;1.27;;;;;;;;;;5056877;28;20055;-64
2021/11/21 05:18:13;;;;;;;5.72;1.20;;;;;;;;;;5074483;28;20025;-64
2021/11/21 05:20:39;;;;;;;13.32;1.05;;;;;;;;;;5074552;28;20047;-64
2021/11/21 05:23:05;;;;;;;13.18;1.40;;;;;;;;;;5074403;28;20025;-63
2021/11/21 05:25:31;;;;;;;11.57;1.17;;;;;;;;;;5073792;28;20066;-67
2021/11/21 05:27:57;;;;;;;8.55;1.10;;;;;;;;;;5073338;28;20036;-64
2021/11/21 05:30:24;;;;;;;11.35;1.25;;;;;;;;;;5075722;28;20031;-64
2021/11/21 05:32:50;;;;;;;14.73;1.30;;;;;;;;;;5073834;28;20098;-64
2021/11/21 05:35:17;;;;;;;13.30;1.20;;;;;;;;;;5071127;28;20506;-64
2021/11/21 05:37:43;;;;;;;12.45;0.90;;;;;;;;;;5073797;28;20028;-65
2021/11/21 05:40:10;;;;;;;4.80;0.80;;;;;;;;;;5073475;28;20397;-64
2021/11/21 05:42:37;;;;;;;12.35;0.77;;;;;;;;;;5073570;28;20035;-64
2021/11/21 05:45:03;;;;;;;15.60;1.23;;;;;;;;;;5073559;28;21290;-64
2021/11/21 05:47:31;;;;;;;6.63;0.93;;;;;;;;;;5070702;28;20119;-64
2021/11/21 05:49:57;;;;;;;12.52;1.35;;;;;;;;;;5073225;28;20020;-64
2021/11/21 05:52:23;;;;;;;8.57;0.90;;;;;;;;;;5073029;28;20024;-64
2021/11/21 05:54:50;;;;;;;6.85;1.33;;;;;;;;;;5072828;28;20020;-64
2021/11/21 05:57:16;;;;;;;6.53;1.23;;;;;;;;;;5073000;28;20104;-63
2021/11/21 05:59:42;;;;;;;6.70;0.82;;;;;;;;;;5077157;28;20028;-64
2021/11/21 06:02:08;;;;;;;3.83;0.82;;;;;;;;;;5057462;28;20043;-64
2021/11/21 06:04:35;;;;;;;18.90;1.00;;;;;;;;;;5078955;28;20419;-64
2021/11/21 06:07:01;;;;;;;6.18;0.85;;;;;;;;;;5093870;28;20023;-64
2021/11/21 06:09:27;;;;;;;5.15;0.80;;;;;;;;;;5064651;28;20039;-65
2021/11/21 06:11:54;;;;;;;6.57;0.85;;;;;;;;;;5091153;28;20020;-64
2021/11/21 06:14:21;;;;;;;4.90;0.77;;;;;;;;;;5072995;28;20515;-65
2021/11/21 06:16:47;;;;;;;8.25;0.90;;;;;;;;;;5078578;28;20070;-64
2021/11/21 06:19:13;;;;;;;3.45;0.77;;;;;;;;;;5092966;28;20078;-64
2021/11/21 06:21:39;;;;;;;1.67;0.60;;;;;;;;;;5081570;28;20480;-64
2021/11/21 06:24:07;;;;;;;8.93;0.70;;;;;;;;;;5073381;28;20031;-64
2021/11/21 06:26:33;;;;;;;2.45;0.63;;;;;;;;;;5089183;28;20071;-65
2021/11/21 06:29:00;;;;;;;3.60;0.60;;;;;;;;;;5093083;28;20439;-63
2021/11/21 06:31:26;;;;;;;4.35;0.90;;;;;;;;;;5093233;28;20471;-63
2021/11/21 06:33:55;;;;;;;3.45;0.57;;;;;;;;;;5089900;28;20032;-64
2021/11/21 06:36:21;;;;;;;7.43;0.95;;;;;;;;;;5093017;28;20017;-64
2021/11/21 06:38:47;;;;;;;5.40;0.82;;;;;;;;;;5093421;28;20024;-64
2021/11/21 06:41:13;;;;;;;3.30;0.50;;;;;;;;;;5093255;28;20077;-65
2021/11/21 06:43:39;;;;;;;4.00;0.60;;;;;;;;;;5058875;28;20365;-64
2021/11/21 06:46:05;;;;;;;7.60;0.80;;;;;;;;;;5054823;28;20024;-64
2021/11/21 06:48:31;;;;;;;1.75;0.55;;;;;;;;;;5072874;28;20024;-65
2021/11/21 06:50:58;;;;;;;5.03;0.68;;;;;;;;;;5072685;28;20363;-65
2021/11/21 06:53:24;;;;;;;3.03;0.60;;;;;;;;;;5057151;28;20024;-65
2021/11/21 06:55:50;;;;;;;2.83;0.50;;;;;;;;;;5072637;28;20025;-65
2021/11/21 06:58:16;;;;;;;4.75;0.80;;;;;;;;;;5072704;28;20459;-65
2021/11/21 07:00:42;;;;;;;7.55;0.85;;;;;;;;;;5072102;28;20488;-65
2021/11/21 07:03:08;;;;;;;9.55;1.13;;;;;;;;;;5071314;28;20029;-65
2021/11/21 07:05:36;;;;;;;3.10;0.50;;;;;;;;;;5072136;28;20024;-65
2021/11/21 07:08:02;;;;;;;2.85;0.70;;;;;;;;;;5072343;28;20384;-64
2021/11/21 07:10:28;;;;;;;2.45;0.77;;;;;;;;;;5072598;28;20033;-64
2021/11/21 07:12:54;;;;;;;3.40;0.80;;;;;;;;;;5053926;28;20372;-65
2021/11/21 07:15:20;;;;;;;2.60;0.50;;;;;;;;;;5053216;28;20451;-67
2021/11/21 07:17:52;;;;;;;6.38;0.85;;;;;;;;;;5088505;28;20489;-64
2021/11/21 07:20:18;;;;;;;7.65;0.90;;;;;;;;;;5096221;28;20040;-64
2021/11/21 07:22:49;;;;;;;5.30;0.70;;;;;;;;;;5079213;28;20071;-64
2021/11/21 07:25:16;;;;;;;4.47;0.70;;;;;;;;;;5075186;28;20064;-65
2021/11/21 07:27:43;;;;;;;9.57;0.82;;;;;;;;;;5075223;28;20032;-66
2021/11/21 07:30:09;;;;;;;15.45;1.00;;;;;;;;;;5075367;28;20025;-64
2021/11/21 07:32:35;;;;;;;6.97;0.88;;;;;;;;;;5075563;28;20036;-67
2021/11/21 07:35:01;;;;;;;16.25;1.30;;;;;;;;;;5075529;28;20458;-66
2021/11/21 07:37:27;;;;;;;19.15;1.17;;;;;;;;;;5057580;28;20511;-65
2021/11/21 07:39:53;;;;;;;15.07;1.33;;;;;;;;;;5075579;28;20020;-66
2021/11/21 07:42:20;;;;;;;69.60;2.35;;;;;;;;;;5075250;28;20023;-67
2021/11/21 07:44:46;;;;;;;59.53;2.13;;;;;;;;;;5075352;28;20133;-66
2021/11/21 07:47:12;;;;;;;65.60;3.25;;;;;;;;;;5075350;28;20086;-69
2021/11/21 07:49:38;;;;;;;65.55;2.30;;;;;;;;;;5075206;28;20025;-65
2021/11/21 07:52:04;;;;;;;46.97;1.70;;;;;;;;;;5056878;28;20487;-67
2021/11/21 07:54:30;;;;;;;38.55;2.10;;;;;;;;;;5075060;28;20021;-64
2021/11/21 07:56:56;;;;;;;56.53;2.25;;;;;;;;;;5074868;28;20612;-64
2021/11/21 07:59:22;;;;;;;29.00;1.52;;;;;;;;;;5074975;28;20131;-63
2021/11/21 08:01:49;;;;;;;18.70;1.58;;;;;;;;;;5074817;28;20028;-64
2021/11/21 08:04:15;;;;;;;17.17;1.73;;;;;;;;;;5075121;28;20064;-63
2021/11/21 08:06:41;;;;;;;12.73;1.38;;;;;;;;;;5056629;28;20025;-63
2021/11/21 08:09:07;;;;;;;21.13;1.48;;;;;;;;;;5074760;28;20029;-63
2021/11/21 08:11:33;;;;;;;14.35;1.33;;;;;;;;;;5073913;28;20043;-63
2021/11/21 08:13:59;;;;;;;12.10;1.88;;;;;;;;;;5074372;28;20028;-64
2021/11/21 08:16:25;;;;;;;16.75;1.83;;;;;;;;;;5056487;28;20376;-63
2021/11/21 08:18:51;;;;;;;12.40;1.23;;;;;;;;;;5074882;28;20111;-63
2021/11/21 08:21:17;;;;;;;11.27;1.58;;;;;;;;;;5074647;28;20025;-63
2021/11/21 08:23:43;;;;;;;10.38;1.77;;;;;;;;;;5074716;28;20483;-65
2021/11/21 08:26:09;;;;;;;16.02;1.42;;;;;;;;;;5074303;28;20031;-66
2021/11/21 08:28:38;;;;;;;5.47;1.15;;;;;;;;;;5056101;28;20112;-66
2021/11/21 08:31:04;;;;;;;11.80;1.48;;;;;;;;;;5054799;28;20056;-65
2021/11/21 08:33:30;;;;;;;6.43;1.00;;;;;;;;;;5074452;28;20072;-64
2021/11/21 08:35:56;;;;;;;12.00;1.50;;;;;;;;;;5074114;28;20039;-64
2021/11/21 08:38:22;;;;;;;18.13;1.58;;;;;;;;;;5056049;28;20434;-65
2021/11/21 08:40:48;;;;;;;22.13;1.55;;;;;;;;;;5074237;28;20036;-63
2021/11/21 08:43:14;;;;;;;25.20;1.85;;;;;;;;;;5073960;28;20487;-63
2021/11/21 08:45:40;;;;;;;29.05;1.85;;;;;;;;;;5073693;28;20028;-63
2021/11/21 08:48:06;;;;;;;25.92;2.03;;;;;;;;;;5074079;28;20135;-63
2021/11/21 08:50:32;;;;;;;22.88;1.48;;;;;;;;;;5074103;28;20383;-65
2021/11/21 08:52:58;;;;;;;28.05;1.90;;;;;;;;;;5074082;28;20029;-67
2021/11/21 08:55:24;;;;;;;21.70;1.52;;;;;;;;;;5074013;28;20017;-63
2021/11/21 08:57:50;;;;;;;24.27;2.30;;;;;;;;;;5073802;28;20013;-65
2021/11/21 09:00:17;;;;;;;17.13;1.50;;;;;;;;;;5057802;28;20101;-67
2021/11/21 09:02:45;;;;;;;16.95;2.22;;;;;;;;;;5059422;28;20024;-65
2021/11/21 09:05:12;;;;;;;15.20;1.75;;;;;;;;;;5074482;28;20047;-64
2021/11/21 09:07:38;;;;;;;16.02;1.77;;;;;;;;;;5073891;28;20029;-64
2021/11/21 09:10:06;;;;;;;16.98;1.73;;;;;;;;;;5072618;28;20039;-63
2021/11/21 09:12:32;;;;;;;18.35;1.85;;;;;;;;;;5057548;28;20040;-64
2021/11/21 09:14:58;;;;;;;18.42;1.77;;;;;;;;;;5072309;28;20050;-63
2021/11/21 09:17:24;;;;;;;16.77;1.73;;;;;;;;;;5072525;28;20375;-62
2021/11/21 09:19:51;;;;;;;11.25;1.65;;;;;;;;;;5073200;28;20025;-63
2021/11/21 09:22:17;;;;;;;6.80;1.35;;;;;;;;;;5073352;28;20032;-63
2021/11/21 09:24:42;;;;;;;16.42;1.67;;;;;;;;;;5074584;28;20025;-64
2021/11/21 09:27:13;;;;;;;9.82;1.60;;;;;;;;;;5061064;28;20052;-63
2021/11/21 09:29:40;;;;;;;12.18;1.40;;;;;;;;;;5053588;28;20392;-64
2021/11/21 09:32:06;;;;;;;16.65;1.77;;;;;;;;;;5071026;28;20048;-64
2021/11/21 09:34:33;;;;;;;19.50;2.22;;;;;;;;;;5058986;28;20032;-63
2021/11/21 09:36:59;;;;;;;14.15;1.42;;;;;;;;;;5075495;28;20027;-64
2021/11/21 09:39:25;;;;;;;16.00;1.63;;;;;;;;;;5072571;28;20020;-64
2021/11/21 09:41:51;;;;;;;13.05;1.55;;;;;;;;;;5072095;28;20035;-63
2021/11/21 09:44:17;;;;;;;28.52;1.83;;;;;;;;;;5072168;28;20020;-63
2021/11/21 09:46:43;;;;;;;16.13;1.70;;;;;;;;;;5072356;28;20104;-62
2021/11/21 09:49:10;;;;;;;11.70;1.48;;;;;;;;;;5072890;28;20060;-63
2021/11/21 09:51:36;;;;;;;17.38;1.73;;;;;;;;;;5072727;28;20446;-67
2021/11/21 09:54:02;;;;;;;19.60;1.73;;;;;;;;;;5072570;28;20029;-64
2021/11/21 09:56:28;;;;;;;16.20;1.90;;;;;;;;;;5073800;28;20020;-64
2021/11/21 09:58:54;;;;;;;17.35;1.42;;;;;;;;;;5072680;28;20048;-65
2021/11/21 10:01:34;;;;;;;9.88;1.38;;;;;;;;;;5056533;28;20086;-63
2021/11/21 10:04:00;;;;;;;22.10;1.40;;;;;;;;;;5074193;28;20020;-65
2021/11/21 10:06:45;;;;;;;12.27;1.63;;;;;;;;;;5074961;28;20024;-65
2021/11/21 10:09:12;;;;;;;11.48;1.30;;;;;;;;;;5075793;28;20036;-65
2021/11/21 10:11:57;;;;;;;25.17;1.20;;;;;;;;;;5074682;28;20427;-64
2021/11/21 10:14:23;;;;;;;12.63;1.48;;;;;;;;;;5072451;28;20107;-64
2021/11/21 10:16:49;;;;;;;10.85;1.27;;;;;;;;;;5075343;28;20524;-65
2021/11/21 10:19:17;;;;;;;11.02;1.40;;;;;;;;;;5074424;28;20048;-65
2021/11/21 10:21:46;;;;;;;22.77;3.10;;;;;;;;;;5073461;28;20036;-65
2021/11/21 10:24:21;;;;;;;8.27;1.05;;;;;;;;;;5074352;28;20383;-64
2021/11/21 10:26:48;;;;;;;19.40;1.70;;;;;;;;;;5076320;28;20031;-65
2021/11/21 10:29:23;;;;;;;14.98;1.58;;;;;;;;;;5073691;28;20032;-66
2021/11/21 10:31:49;;;;;;;15.52;1.50;;;;;;;;;;5075576;28;20082;-65
2021/11/21 10:34:15;;;;;;;11.18;1.63;;;;;;;;;;5074909;28;20036;-67
2021/11/21 10:36:41;;;;;;;12.68;1.13;;;;;;;;;;5074945;28;20090;-65
2021/11/21 10:39:08;;;;;;;13.30;1.27;;;;;;;;;;5071737;28;20034;-67
2021/11/21 10:41:37;;;;;;;19.08;1.58;;;;;;;;;;5072695;28;20468;-66
2021/11/21 10:44:07;;;;;;;18.90;1.30;;;;;;;;;;5074747;28;20060;-66
2021/11/21 10:46:46;;;;;;;15.45;1.95;;;;;;;;;;5075115;28;21379;-66
2021/11/21 10:49:12;;;;;;;20.80;1.55;;;;;;;;;;5075258;28;20375;-65
2021/11/21 10:51:38;;;;;;;18.33;1.27;;;;;;;;;;5074838;28;20030;-67
2021/11/21 10:54:16;;;;;;;18.48;1.58;;;;;;;;;;5075847;28;20028;-67
2021/11/21 10:56:50;;;;;;;24.63;1.70;;;;;;;;;;5077393;28;20012;-66
2021/11/21 10:59:31;;;;;;;30.02;1.90;;;;;;;;;;5075432;28;20024;-64
2021/11/21 11:02:05;;;;;;;19.92;2.25;;;;;;;;;;5070192;28;20094;-73
2021/11/21 11:04:31;;;;;;;17.20;1.70;;;;;;;;;;5079329;28;20020;-69
2021/11/21 11:06:57;;;;;;;22.65;1.75;;;;;;;;;;5075820;28;20033;-75
2021/11/21 11:09:26;;;;;;;14.98;1.50;;;;;;;;;;5071310;28;20088;-68
2021/11/21 11:11:53;;;;;;;16.45;1.58;;;;;;;;;;5071163;28;20048;-66
2021/11/21 11:14:20;;;;;;;26.40;1.88;;;;;;;;;;5070748;28;20024;-67
2021/11/21 11:16:51;;;;;;;8.85;1.35;;;;;;;;;;5069466;28;20099;-66
2021/11/21 11:19:18;;;;;;;12.40;1.50;;;;;;;;;;5071740;28;20353;-66
2021/11/21 11:21:46;;;;;;;17.73;2.25;;;;;;;;;;5072157;28;20028;-65
2021/11/21 11:24:13;;;;;;;15.13;1.75;;;;;;;;;;5085862;28;20367;-66
2021/11/21 11:26:39;;;;;;;14.60;1.77;;;;;;;;;;5074382;28;20538;-66
2021/11/21 11:29:11;;;;;;;22.45;1.70;;;;;;;;;;5074316;28;20061;-66
2021/11/21 11:31:37;;;;;;;10.48;1.65;;;;;;;;;;5072323;28;20048;-66
2021/11/21 11:34:04;;;;;;;20.17;1.85;;;;;;;;;;5071958;28;20028;-67
2021/11/21 11:36:31;;;;;;;16.48;1.83;;;;;;;;;;5074568;28;20021;-66
2021/11/21 11:38:58;;;;;;;17.25;1.90;;;;;;;;;;5074595;28;20156;-66
2021/11/21 11:41:29;;;;;;;10.35;1.40;;;;;;;;;;5074288;28;20433;-66
2021/11/21 11:43:55;;;;;;;13.35;1.40;;;;;;;;;;5072836;28;20024;-66
2021/11/21 11:46:25;;;;;;;14.05;1.60;;;;;;;;;;5076019;28;20021;-66
2021/11/21 11:48:59;;;;;;;13.82;1.60;;;;;;;;;;5073153;28;20028;-66
2021/11/21 11:51:31;;;;;;;18.73;1.58;;;;;;;;;;5070523;28;20388;-68
2021/11/21 11:54:02;;;;;;;10.43;1.45;;;;;;;;;;5058654;28;20025;-71
2021/11/21 11:56:32;;;;;;;17.55;1.52;;;;;;;;;;5075259;28;20020;-68
2021/11/21 11:59:02;;;;;;;24.30;2.00;;;;;;;;;;5073633;28;20020;-69
2021/11/21 12:01:38;;;;;;;12.45;1.98;;;;;;;;;;5072241;28;20154;-66
2021/11/21 12:04:05;;;;;;;45.42;1.83;;;;;;;;;;5054718;28;20036;-67
2021/11/21 12:06:41;;;;;;;18.85;1.88;;;;;;;;;;5056897;28;20070;-66
2021/11/21 12:09:22;;;;;;;24.52;1.70;;;;;;;;;;5074455;28;20880;-68
2021/11/21 12:11:59;;;;;;;46.45;1.88;;;;;;;;;;5073370;28;20090;-65
2021/11/21 12:14:26;;;;;;;33.38;1.90;;;;;;;;;;5058847;28;20036;-65
2021/11/21 12:16:59;;;;;;;34.15;2.00;;;;;;;;;;5074466;28;20472;-64
2021/11/21 12:19:38;;;;;;;28.70;1.60;;;;;;;;;;5074644;28;20089;-65
2021/11/21 12:22:04;;;;;;;43.40;2.47;;;;;;;;;;5057020;28;20029;-65
2021/11/21 12:24:32;;;;;;;41.78;2.13;;;;;;;;;;5074456;28;20042;-64
2021/11/21 12:26:58;;;;;;;41.40;2.65;;;;;;;;;;5074622;28;20435;-65
2021/11/21 12:29:28;;;;;;;23.23;1.95;;;;;;;;;;5074705;28;20036;-65
2021/11/21 12:31:55;;;;;;;25.70;2.08;;;;;;;;;;5075136;28;20025;-65
2021/11/21 12:34:27;;;;;;;21.90;1.85;;;;;;;;;;5056750;28;20111;-69
2021/11/21 12:37:06;;;;;;;22.33;1.42;;;;;;;;;;5074834;28;20102;-66
2021/11/21 12:39:33;;;;;;;18.27;1.63;;;;;;;;;;5073809;28;20107;-67
2021/11/21 12:42:02;;;;;;;26.38;1.95;;;;;;;;;;5074503;28;20491;-66
2021/11/21 12:44:28;;;;;;;15.85;1.83;;;;;;;;;;5074517;28;20028;-67
2021/11/21 12:47:01;;;;;;;17.25;1.48;;;;;;;;;;5056314;28;20082;-67
2021/11/21 12:49:27;;;;;;;18.83;1.60;;;;;;;;;;5074303;28;20041;-65
2021/11/21 12:52:06;;;;;;;15.88;1.48;;;;;;;;;;5074369;28;20036;-66
2021/11/21 12:54:33;;;;;;;15.32;1.60;;;;;;;;;;5074105;28;20476;-65
2021/11/21 12:56:59;;;;;;;11.75;1.60;;;;;;;;;;5055466;28;20472;-65
2021/11/21 12:59:44;;;;;;;18.15;1.48;;;;;;;;;;5072869;28;20414;-65
2021/11/21 13:02:13;;;;;;;7.20;1.23;;;;;;;;;;5073156;28;20032;-67
2021/11/21 13:04:53;;;;;;;14.40;1.33;;;;;;;;;;5055234;28;20758;-66
2021/11/21 13:07:23;;;;;;;14.77;1.35;;;;;;;;;;5055193;28;20434;-66
2021/11/21 13:09:56;;;;;;;7.45;1.15;;;;;;;;;;5073418;28;20032;-65
2021/11/21 13:12:30;;;;;;;7.70;1.10;;;;;;;;;;5073252;28;20025;-65
2021/11/21 13:15:00;;;;;;;7.55;1.13;;;;;;;;;;5053684;28;20045;-65
2021/11/21 13:17:27;;;;;;;10.88;1.50;;;;;;;;;;5053333;28;20032;-64
2021/11/21 13:20:05;;;;;;;10.82;1.15;;;;;;;;;;5052926;28;20408;-64
2021/11/21 13:22:50;;;;;;;7.15;0.90;;;;;;;;;;5053740;28;20515;-64
2021/11/21 13:25:29;;;;;;;12.75;1.17;;;;;;;;;;5077613;28;20033;-64
2021/11/21 13:28:13;;;;;;;4.95;1.00;;;;;;;;;;5080691;28;20126;-66
2021/11/21 13:30:39;;;;;;;4.15;1.45;;;;;;;;;;5082741;28;20035;-69
2021/11/21 13:33:19;;;;;;;17.25;1.45;;;;;;;;;;5093636;28;20032;-65
2021/11/21 13:35:45;;;;;;;6.72;1.45;;;;;;;;;;5093729;28;20505;-65
2021/11/21 13:38:11;;;;;;;9.63;1.15;;;;;;;;;;5072284;28;20021;-64
2021/11/21 13:40:38;;;;;;;7.38;1.00;;;;;;;;;;5073754;28;20024;-65
2021/11/21 13:43:11;;;;;;;10.00;1.10;;;;;;;;;;5072658;28;20100;-65
2021/11/21 13:45:37;;;;;;;5.78;1.00;;;;;;;;;;5072576;28;20032;-64
2021/11/21 13:48:03;;;;;;;4.90;1.00;;;;;;;;;;5072951;28;20031;-65
2021/11/21 13:50:30;;;;;;;5.15;1.00;;;;;;;;;;5072730;28;20429;-64
2021/11/21 13:52:56;;;;;;;7.28;1.10;;;;;;;;;;5071686;28;20029;-65
2021/11/21 13:55:26;;;;;;;5.43;1.30;;;;;;;;;;5071796;28;20383;-65
2021/11/21 13:57:56;;;;;;;17.58;1.10;;;;;;;;;;5072973;28;20032;-65
2021/11/21 14:00:29;;;;;;;5.05;1.00;;;;;;;;;;5074065;28;20016;-64
2021/11/21 14:02:58;;;;;;;8.95;0.95;;;;;;;;;;5072975;28;20031;-64
2021/11/21 14:05:26;;;;;;;6.60;1.05;;;;;;;;;;5072114;28;20028;-65
2021/11/21 14:08:06;;;;;;;17.67;1.23;;;;;;;;;;5072305;28;20024;-64
2021/11/21 14:10:34;;;;;;;6.90;0.80;;;;;;;;;;5057180;28;20085;-66
2021/11/21 14:13:10;;;;;;;11.32;0.95;;;;;;;;;;5072777;28;20013;-67
2021/11/21 14:15:37;;;;;;;14.35;1.23;;;;;;;;;;5054559;28;20045;-67
2021/11/21 14:18:03;;;;;;;7.57;1.27;;;;;;;;;;5073030;28;20031;-65
2021/11/21 14:20:47;;;;;;;9.50;1.00;;;;;;;;;;5055941;28;20107;-66
2021/11/21 14:23:19;;;;;;;17.23;1.55;;;;;;;;;;5074894;28;20032;-66
2021/11/21 14:25:46;;;;;;;11.32;1.50;;;;;;;;;;5072385;28;20023;-64
2021/11/21 14:28:14;;;;;;;12.05;1.45;;;;;;;;;;5072511;28;20064;-65
2021/11/21 14:30:44;;;;;;;8.25;1.23;;;;;;;;;;5072918;28;20031;-66
2021/11/21 14:33:11;;;;;;;11.55;1.25;;;;;;;;;;5034439;28;20546;-64
2021/11/21 14:35:45;;;;;;;14.43;1.30;;;;;;;;;;5034292;28;20020;-65
2021/11/21 14:38:13;;;;;;;10.40;1.42;;;;;;;;;;5051333;28;20036;-65